sensor_id;sensor_type;location;lat;lon;timestamp;pressure;altitude;pressure_sealevel;temperature;humidity
22830;BME280;11581;51.250;6.778;2023-06-14T00:01:47;100877.38;;;22.20;31.92
22830;BME280;11581;51.250;6.778;2023-06-14T00:04:13;100890.81;;;22.15;32.00
22830;BME280;11581;51.250;6.778;2023-06-14T00:06:42;100903.41;;;22.10;32.16
22830;BME280;11581;51.250;6.778;2023-06-14T00:09:10;100898.84;;;22.04;32.28
22830;BME280;11581;51.250;6.778;2023-06-14T00:11:39;100876.97;;;21.92;32.16
22830;BME280;11581;51.250;6.778;2023-06-14T00:14:06;100890.53;;;21.92;32.34
22830;BME280;11581;51.250;6.778;2023-06-14T00:16:32;100881.19;;;21.81;32.27
22830;BME280;11581;51.250;6.778;2023-06-14T00:19:00;100892.06;;;21.81;32.54
22830;BME280;11581;51.250;6.778;2023-06-14T00:21:28;100885.41;;;21.71;32.78
22830;BME280;11581;51.250;6.778;2023-06-14T00:23:55;100896.03;;;21.72;32.67
22830;BME280;11581;51.250;6.778;2023-06-14T00:26:22;100892.94;;;21.69;32.79
22830;BME280;11581;51.250;6.778;2023-06-14T00:28:50;100886.09;;;21.60;33.17
22830;BME280;11581;51.250;6.778;2023-06-14T00:31:16;100892.09;;;21.62;32.92
22830;BME280;11581;51.250;6.778;2023-06-14T00:33:43;100739.97;;;20.62;33.04
22830;BME280;11581;51.250;6.778;2023-06-14T00:36:10;100909.25;;;21.56;33.03
22830;BME280;11581;51.250;6.778;2023-06-14T00:38:37;100897.78;;;21.54;33.20
22830;BME280;11581;51.250;6.778;2023-06-14T00:41:04;100898.22;;;21.51;33.38
22830;BME280;11581;51.250;6.778;2023-06-14T00:43:31;100898.22;;;21.51;33.52
22830;BME280;11581;51.250;6.778;2023-06-14T00:45:59;100916.59;;;21.49;33.72
22830;BME280;11581;51.250;6.778;2023-06-14T00:48:26;100893.69;;;21.38;33.12
22830;BME280;11581;51.250;6.778;2023-06-14T00:50:53;100909.72;;;21.46;33.33
22830;BME280;11581;51.250;6.778;2023-06-14T00:53:21;100902.84;;;21.44;33.71
22830;BME280;11581;51.250;6.778;2023-06-14T00:55:48;100910.34;;;21.42;33.70
22830;BME280;11581;51.250;6.778;2023-06-14T00:58:16;100905.34;;;21.39;33.70
22830;BME280;11581;51.250;6.778;2023-06-14T01:00:42;100917.47;;;21.36;33.68
22830;BME280;11581;51.250;6.778;2023-06-14T01:03:11;100914.34;;;21.33;34.39
22830;BME280;11581;51.250;6.778;2023-06-14T01:06:14;100859.56;;;20.98;34.49
22830;BME280;11581;51.250;6.778;2023-06-14T01:09:03;100907.53;;;21.11;34.49
22830;BME280;11581;51.250;6.778;2023-06-14T01:11:38;100910.44;;;21.16;34.76
22830;BME280;11581;51.250;6.778;2023-06-14T01:14:07;100917.13;;;21.13;34.24
22830;BME280;11581;51.250;6.778;2023-06-14T01:16:36;100920.66;;;21.14;34.42
22830;BME280;11581;51.250;6.778;2023-06-14T01:19:09;100915.66;;;21.04;35.19
22830;BME280;11581;51.250;6.778;2023-06-14T01:21:39;100923.38;;;21.07;34.58
22830;BME280;11581;51.250;6.778;2023-06-14T01:24:08;100919.22;;;20.98;35.18
22830;BME280;11581;51.250;6.778;2023-06-14T01:26:36;100917.34;;;20.99;35.13
22830;BME280;11581;51.250;6.778;2023-06-14T01:29:05;100920.47;;;20.96;35.19
22830;BME280;11581;51.250;6.778;2023-06-14T01:31:34;100923.78;;;20.91;35.28
22830;BME280;11581;51.250;6.778;2023-06-14T01:34:06;100917.94;;;20.88;35.09
22830;BME280;11581;51.250;6.778;2023-06-14T01:36:35;100923.78;;;20.85;35.31
22830;BME280;11581;51.250;6.778;2023-06-14T01:39:03;100825.84;;;20.23;35.71
22830;BME280;11581;51.250;6.778;2023-06-14T01:41:33;100916.28;;;20.74;35.95
22830;BME280;11581;51.250;6.778;2023-06-14T01:44:01;100919.63;;;20.76;35.79
22830;BME280;11581;51.250;6.778;2023-06-14T01:46:28;100920.88;;;20.73;35.45
22830;BME280;11581;51.250;6.778;2023-06-14T01:48:55;100918.56;;;20.70;36.08
22830;BME280;11581;51.250;6.778;2023-06-14T01:51:21;100919.03;;;20.67;35.83
22830;BME280;11581;51.250;6.778;2023-06-14T01:53:48;100924.22;;;20.62;36.39
22830;BME280;11581;51.250;6.778;2023-06-14T01:56:15;100923.78;;;20.59;36.08
22830;BME280;11581;51.250;6.778;2023-06-14T01:58:43;100924.19;;;20.56;36.60
22830;BME280;11581;51.250;6.778;2023-06-14T02:01:09;100915.88;;;20.51;36.37
22830;BME280;11581;51.250;6.778;2023-06-14T02:03:38;100922.75;;;20.47;36.49
22830;BME280;11581;51.250;6.778;2023-06-14T02:06:04;100919.63;;;20.43;36.82
22830;BME280;11581;51.250;6.778;2023-06-14T02:08:32;100919.19;;;20.40;36.72
22830;BME280;11581;51.250;6.778;2023-06-14T02:10:59;100911.28;;;20.32;36.66
22830;BME280;11581;51.250;6.778;2023-06-14T02:13:26;100916.28;;;20.35;36.83
22830;BME280;11581;51.250;6.778;2023-06-14T02:15:54;100918.56;;;20.31;37.10
22830;BME280;11581;51.250;6.778;2023-06-14T02:18:22;100915.44;;;20.28;36.74
22830;BME280;11581;51.250;6.778;2023-06-14T02:20:49;100916.66;;;20.25;36.59
22830;BME280;11581;51.250;6.778;2023-06-14T02:23:16;100913.34;;;20.23;36.64
22830;BME280;11581;51.250;6.778;2023-06-14T02:25:43;100913.75;;;20.20;36.60
22830;BME280;11581;51.250;6.778;2023-06-14T02:28:10;100921.25;;;20.18;36.45
22830;BME280;11581;51.250;6.778;2023-06-14T02:30:38;100917.94;;;20.16;37.09
22830;BME280;11581;51.250;6.778;2023-06-14T02:33:07;100919.16;;;20.14;37.11
22830;BME280;11581;51.250;6.778;2023-06-14T02:35:39;100917.50;;;20.13;37.13
22830;BME280;11581;51.250;6.778;2023-06-14T02:38:05;100923.97;;;20.12;36.97
22830;BME280;11581;51.250;6.778;2023-06-14T02:40:32;100930.34;;;20.11;37.10
22830;BME280;11581;51.250;6.778;2023-06-14T02:42:58;100926.19;;;20.08;37.33
22830;BME280;11581;51.250;6.778;2023-06-14T02:45:25;100929.09;;;20.07;37.24
22830;BME280;11581;51.250;6.778;2023-06-14T02:47:53;100933.06;;;20.04;37.97
22830;BME280;11581;51.250;6.778;2023-06-14T02:50:22;100929.91;;;20.01;38.13
22830;BME280;11581;51.250;6.778;2023-06-14T02:52:49;100925.97;;;19.97;37.77
22830;BME280;11581;51.250;6.778;2023-06-14T02:55:16;100936.13;;;19.94;37.76
22830;BME280;11581;51.250;6.778;2023-06-14T02:57:43;100940.31;;;19.90;37.61
22830;BME280;11581;51.250;6.778;2023-06-14T03:00:10;100927.97;;;19.81;38.26
22830;BME280;11581;51.250;6.778;2023-06-14T03:02:39;100941.31;;;19.83;38.25
22830;BME280;11581;51.250;6.778;2023-06-14T03:05:08;100946.31;;;19.79;38.05
22830;BME280;11581;51.250;6.778;2023-06-14T03:07:36;100953.16;;;19.75;39.12
22830;BME280;11581;51.250;6.778;2023-06-14T03:10:08;100961.03;;;19.70;38.71
22830;BME280;11581;51.250;6.778;2023-06-14T03:12:36;100955.38;;;19.65;38.74
22830;BME280;11581;51.250;6.778;2023-06-14T03:15:03;100946.81;;;19.55;38.69
22830;BME280;11581;51.250;6.778;2023-06-14T03:17:34;100955.13;;;19.54;38.76
22830;BME280;11581;51.250;6.778;2023-06-14T03:20:05;100971.34;;;19.54;38.82
22830;BME280;11581;51.250;6.778;2023-06-14T03:22:32;100958.47;;;19.49;39.01
22830;BME280;11581;51.250;6.778;2023-06-14T03:25:01;100973.00;;;19.48;39.49
22830;BME280;11581;51.250;6.778;2023-06-14T03:27:31;100960.91;;;19.44;38.89
22830;BME280;11581;51.250;6.778;2023-06-14T03:29:59;100970.06;;;19.43;38.89
22830;BME280;11581;51.250;6.778;2023-06-14T03:32:26;100982.94;;;19.41;38.87
22830;BME280;11581;51.250;6.778;2023-06-14T03:34:53;100975.88;;;19.40;38.82
22830;BME280;11581;51.250;6.778;2023-06-14T03:37:22;100984.00;;;19.40;39.09
22830;BME280;11581;51.250;6.778;2023-06-14T03:39:49;100962.28;;;19.27;38.96
22830;BME280;11581;51.250;6.778;2023-06-14T03:42:21;100980.63;;;19.38;39.54
22830;BME280;11581;51.250;6.778;2023-06-14T03:44:49;100981.69;;;19.37;39.06
22830;BME280;11581;51.250;6.778;2023-06-14T03:47:18;100988.75;;;19.38;39.33
22830;BME280;11581;51.250;6.778;2023-06-14T03:49:44;100987.91;;;19.38;39.47
22830;BME280;11581;51.250;6.778;2023-06-14T03:52:12;100992.50;;;19.37;39.52
22830;BME280;11581;51.250;6.778;2023-06-14T03:54:41;100987.09;;;19.37;39.53
22830;BME280;11581;51.250;6.778;2023-06-14T03:57:09;100995.22;;;19.37;39.42
22830;BME280;11581;51.250;6.778;2023-06-14T03:59:38;100840.69;;;18.45;39.67
22830;BME280;11581;51.250;6.778;2023-06-14T04:02:05;101001.22;;;19.39;39.62
22830;BME280;11581;51.250;6.778;2023-06-14T04:04:32;100990.81;;;19.36;39.90
22830;BME280;11581;51.250;6.778;2023-06-14T04:07:01;101004.59;;;19.41;39.36
22830;BME280;11581;51.250;6.778;2023-06-14T04:09:30;101012.31;;;19.44;39.63
22830;BME280;11581;51.250;6.778;2023-06-14T04:11:57;101001.28;;;19.46;39.53
22830;BME280;11581;51.250;6.778;2023-06-14T04:14:24;101005.06;;;19.51;39.65
22830;BME280;11581;51.250;6.778;2023-06-14T04:16:52;101010.06;;;19.54;40.03
22830;BME280;11581;51.250;6.778;2023-06-14T04:19:20;101014.88;;;19.59;39.55
22830;BME280;11581;51.250;6.778;2023-06-14T04:21:46;101017.00;;;19.63;39.42
22830;BME280;11581;51.250;6.778;2023-06-14T04:24:15;101017.22;;;19.68;39.70
22830;BME280;11581;51.250;6.778;2023-06-14T04:26:45;101029.94;;;19.74;39.82
22830;BME280;11581;51.250;6.778;2023-06-14T04:29:15;100987.56;;;19.47;39.39
22830;BME280;11581;51.250;6.778;2023-06-14T04:31:45;101031.06;;;19.86;39.64
22830;BME280;11581;51.250;6.778;2023-06-14T04:34:14;101030.25;;;19.92;39.75
22830;BME280;11581;51.250;6.778;2023-06-14T04:36:47;101032.78;;;20.01;39.60
22830;BME280;11581;51.250;6.778;2023-06-14T04:39:20;101030.13;;;20.07;39.79
22830;BME280;11581;51.250;6.778;2023-06-14T04:41:47;101030.16;;;20.14;39.51
22830;BME280;11581;51.250;6.778;2023-06-14T04:44:17;101042.69;;;20.21;39.02
22830;BME280;11581;51.250;6.778;2023-06-14T04:46:46;101036.28;;;20.29;39.37
22830;BME280;11581;51.250;6.778;2023-06-14T04:49:18;101039.63;;;20.37;39.35
22830;BME280;11581;51.250;6.778;2023-06-14T04:51:45;101042.16;;;20.45;39.28
22830;BME280;11581;51.250;6.778;2023-06-14T04:54:12;101041.75;;;20.55;39.08
22830;BME280;11581;51.250;6.778;2023-06-14T04:56:40;101048.66;;;20.64;38.94
22830;BME280;11581;51.250;6.778;2023-06-14T04:59:08;101040.13;;;20.67;38.79
22830;BME280;11581;51.250;6.778;2023-06-14T05:01:36;101013.00;;;20.54;38.50
22830;BME280;11581;51.250;6.778;2023-06-14T05:04:03;101052.06;;;20.92;38.50
22830;BME280;11581;51.250;6.778;2023-06-14T05:06:31;101051.44;;;21.03;38.79
22830;BME280;11581;51.250;6.778;2023-06-14T05:08:58;101058.94;;;21.27;38.43
22830;BME280;11581;51.250;6.778;2023-06-14T05:11:25;101064.59;;;21.51;38.58
22830;BME280;11581;51.250;6.778;2023-06-14T05:13:52;101063.47;;;21.85;37.84
22830;BME280;11581;51.250;6.778;2023-06-14T05:16:18;101065.47;;;22.22;37.43
22830;BME280;11581;51.250;6.778;2023-06-14T05:18:45;101068.00;;;22.61;36.95
22830;BME280;11581;51.250;6.778;2023-06-14T05:21:12;101018.00;;;22.62;36.46
22830;BME280;11581;51.250;6.778;2023-06-14T05:23:44;101064.59;;;23.52;35.64
22830;BME280;11581;51.250;6.778;2023-06-14T05:26:10;101059.53;;;23.98;35.16
22830;BME280;11581;51.250;6.778;2023-06-14T05:28:37;101058.50;;;24.47;34.70
22830;BME280;11581;51.250;6.778;2023-06-14T05:31:04;101062.63;;;24.97;33.80
22830;BME280;11581;51.250;6.778;2023-06-14T05:33:30;101064.59;;;25.43;32.92
22830;BME280;11581;51.250;6.778;2023-06-14T05:35:57;101061.25;;;25.87;32.10
22830;BME280;11581;51.250;6.778;2023-06-14T05:38:24;101063.34;;;26.31;31.49
22830;BME280;11581;51.250;6.778;2023-06-14T05:40:52;101060.66;;;26.76;30.88
22830;BME280;11581;51.250;6.778;2023-06-14T05:43:19;101060.50;;;27.27;30.57
22830;BME280;11581;51.250;6.778;2023-06-14T05:45:45;101063.25;;;27.81;30.07
22830;BME280;11581;51.250;6.778;2023-06-14T05:48:12;101067.31;;;28.39;29.57
22830;BME280;11581;51.250;6.778;2023-06-14T05:50:39;101069.03;;;28.93;28.66
22830;BME280;11581;51.250;6.778;2023-06-14T05:53:05;101070.31;;;29.43;27.88
22830;BME280;11581;51.250;6.778;2023-06-14T05:55:32;101074.25;;;29.89;27.17
22830;BME280;11581;51.250;6.778;2023-06-14T05:58:00;101070.06;;;30.33;26.05
22830;BME280;11581;51.250;6.778;2023-06-14T06:00:26;101034.34;;;30.53;25.60
22830;BME280;11581;51.250;6.778;2023-06-14T06:02:53;101070.81;;;31.20;25.20
22830;BME280;11581;51.250;6.778;2023-06-14T06:05:22;101071.38;;;31.57;24.48
22830;BME280;11581;51.250;6.778;2023-06-14T06:07:49;101075.75;;;31.93;24.27
22830;BME280;11581;51.250;6.778;2023-06-14T06:10:15;100970.47;;;31.66;23.63
22830;BME280;11581;51.250;6.778;2023-06-14T06:12:42;101090.56;;;32.76;22.81
22830;BME280;11581;51.250;6.778;2023-06-14T06:15:10;101079.84;;;33.13;22.12
22830;BME280;11581;51.250;6.778;2023-06-14T06:17:37;101085.38;;;33.47;22.39
22830;BME280;11581;51.250;6.778;2023-06-14T06:20:05;101088.94;;;33.76;21.41
22830;BME280;11581;51.250;6.778;2023-06-14T06:22:33;101082.06;;;34.02;21.50
22830;BME280;11581;51.250;6.778;2023-06-14T06:25:00;101088.66;;;34.30;21.37
22830;BME280;11581;51.250;6.778;2023-06-14T06:27:26;101083.56;;;34.60;21.13
22830;BME280;11581;51.250;6.778;2023-06-14T06:29:53;101079.38;;;35.00;20.87
22830;BME280;11581;51.250;6.778;2023-06-14T06:32:21;101072.91;;;35.41;20.18
22830;BME280;11581;51.250;6.778;2023-06-14T06:34:47;101085.16;;;35.99;19.95
22830;BME280;11581;51.250;6.778;2023-06-14T06:37:14;101091.22;;;36.56;19.59
22830;BME280;11581;51.250;6.778;2023-06-14T06:39:41;101087.66;;;37.13;19.14
22830;BME280;11581;51.250;6.778;2023-06-14T06:42:07;101088.88;;;37.64;18.22
22830;BME280;11581;51.250;6.778;2023-06-14T06:44:36;101100.22;;;38.07;17.71
22830;BME280;11581;51.250;6.778;2023-06-14T06:47:03;101095.44;;;38.38;16.98
22830;BME280;11581;51.250;6.778;2023-06-14T06:49:31;101103.53;;;38.57;16.70
22830;BME280;11581;51.250;6.778;2023-06-14T06:51:59;101107.31;;;38.61;16.18
22830;BME280;11581;51.250;6.778;2023-06-14T06:54:27;101095.91;;;38.40;15.99
22830;BME280;11581;51.250;6.778;2023-06-14T06:56:53;101105.25;;;38.36;16.03
22830;BME280;11581;51.250;6.778;2023-06-14T06:59:20;101115.16;;;38.11;16.25
22830;BME280;11581;51.250;6.778;2023-06-14T07:01:47;101114.72;;;37.87;16.01
22830;BME280;11581;51.250;6.778;2023-06-14T07:04:13;101125.09;;;37.73;16.10
22830;BME280;11581;51.250;6.778;2023-06-14T07:06:42;101117.63;;;37.60;15.54
22830;BME280;11581;51.250;6.778;2023-06-14T07:09:09;101118.44;;;37.60;15.78
22830;BME280;11581;51.250;6.778;2023-06-14T07:11:38;101020.31;;;36.94;15.54
22830;BME280;11581;51.250;6.778;2023-06-14T07:14:04;101121.81;;;37.49;15.48
22830;BME280;11581;51.250;6.778;2023-06-14T07:16:31;101135.53;;;37.45;16.03
22830;BME280;11581;51.250;6.778;2023-06-14T07:18:58;101126.94;;;37.33;16.03
22830;BME280;11581;51.250;6.778;2023-06-14T07:21:25;101129.22;;;37.18;16.06
22830;BME280;11581;51.250;6.778;2023-06-14T07:23:53;101146.69;;;37.10;15.91
22830;BME280;11581;51.250;6.778;2023-06-14T07:26:21;101136.28;;;37.02;15.74
22830;BME280;11581;51.250;6.778;2023-06-14T07:28:48;101137.66;;;36.91;15.83
22830;BME280;11581;51.250;6.778;2023-06-14T07:31:15;101145.84;;;36.74;15.94
22830;BME280;11581;51.250;6.778;2023-06-14T07:33:43;101125.06;;;36.58;16.18
22830;BME280;11581;51.250;6.778;2023-06-14T07:36:10;101119.28;;;36.41;16.28
22830;BME280;11581;51.250;6.778;2023-06-14T07:38:36;101142.88;;;36.43;15.85
22830;BME280;11581;51.250;6.778;2023-06-14T07:41:04;101145.44;;;36.40;15.80
22830;BME280;11581;51.250;6.778;2023-06-14T07:43:31;101149.97;;;36.36;15.84
22830;BME280;11581;51.250;6.778;2023-06-14T07:45:57;101148.94;;;36.32;15.96
22830;BME280;11581;51.250;6.778;2023-06-14T07:48:24;101128.25;;;36.24;15.92
22830;BME280;11581;51.250;6.778;2023-06-14T07:50:51;101135.03;;;36.18;16.06
22830;BME280;11581;51.250;6.778;2023-06-14T07:53:17;101133.88;;;36.19;15.94
22830;BME280;11581;51.250;6.778;2023-06-14T07:55:44;101141.28;;;36.24;16.04
22830;BME280;11581;51.250;6.778;2023-06-14T07:58:14;101137.00;;;36.31;15.83
22830;BME280;11581;51.250;6.778;2023-06-14T08:00:40;101139.25;;;36.43;15.67
22830;BME280;11581;51.250;6.778;2023-06-14T08:03:07;101146.88;;;36.51;15.46
22830;BME280;11581;51.250;6.778;2023-06-14T08:05:33;101144.19;;;36.59;15.52
22830;BME280;11581;51.250;6.778;2023-06-14T08:08:00;101135.94;;;36.68;15.38
22830;BME280;11581;51.250;6.778;2023-06-14T08:10:27;101146.88;;;36.78;15.82
22830;BME280;11581;51.250;6.778;2023-06-14T08:12:55;101149.00;;;36.94;15.46
22830;BME280;11581;51.250;6.778;2023-06-14T08:15:22;101137.72;;;37.13;15.22
22830;BME280;11581;51.250;6.778;2023-06-14T08:17:49;101146.41;;;37.33;14.50
22830;BME280;11581;51.250;6.778;2023-06-14T08:20:16;101114.88;;;37.38;14.64
22830;BME280;11581;51.250;6.778;2023-06-14T08:22:43;101140.34;;;37.75;14.97
22830;BME280;11581;51.250;6.778;2023-06-14T08:25:11;101143.25;;;38.01;14.24
22830;BME280;11581;51.250;6.778;2023-06-14T08:27:38;101141.91;;;38.21;14.53
22830;BME280;11581;51.250;6.778;2023-06-14T08:30:07;101149.16;;;38.30;13.97
22830;BME280;11581;51.250;6.778;2023-06-14T08:32:35;101131.28;;;38.31;14.47
22830;BME280;11581;51.250;6.778;2023-06-14T08:35:02;101131.50;;;38.43;14.41
22830;BME280;11581;51.250;6.778;2023-06-14T08:37:28;101131.91;;;38.67;14.76
22830;BME280;11581;51.250;6.778;2023-06-14T08:39:55;101140.34;;;39.01;14.14
22830;BME280;11581;51.250;6.778;2023-06-14T08:42:24;101139.34;;;39.31;14.21
22830;BME280;11581;51.250;6.778;2023-06-14T08:44:50;101140.94;;;39.66;13.82
22830;BME280;11581;51.250;6.778;2023-06-14T08:47:17;101143.19;;;39.99;13.77
22830;BME280;11581;51.250;6.778;2023-06-14T08:49:47;101138.16;;;40.30;13.33
22830;BME280;11581;51.250;6.778;2023-06-14T08:52:17;101134.09;;;40.48;13.28
22830;BME280;11581;51.250;6.778;2023-06-14T08:54:45;101133.53;;;40.63;13.79
22830;BME280;11581;51.250;6.778;2023-06-14T08:57:14;101128.34;;;40.82;13.34
22830;BME280;11581;51.250;6.778;2023-06-14T08:59:46;101106.22;;;40.89;12.83
22830;BME280;11581;51.250;6.778;2023-06-14T09:02:14;101134.22;;;41.30;13.14
22830;BME280;11581;51.250;6.778;2023-06-14T09:04:43;101136.88;;;41.47;12.85
22830;BME280;11581;51.250;6.778;2023-06-14T09:07:11;101139.81;;;41.50;12.43
22830;BME280;11581;51.250;6.778;2023-06-14T09:09:39;101139.47;;;41.31;12.33
22830;BME280;11581;51.250;6.778;2023-06-14T09:12:07;101146.09;;;41.27;12.62
22830;BME280;11581;51.250;6.778;2023-06-14T09:14:35;101135.44;;;41.00;12.73
22830;BME280;11581;51.250;6.778;2023-06-14T09:17:04;101137.91;;;41.01;12.64
22830;BME280;11581;51.250;6.778;2023-06-14T09:19:31;101156.16;;;40.99;12.60
22830;BME280;11581;51.250;6.778;2023-06-14T09:21:57;101148.78;;;40.94;13.03
22830;BME280;11581;51.250;6.778;2023-06-14T09:24:25;101149.00;;;40.89;12.87
22830;BME280;11581;51.250;6.778;2023-06-14T09:26:53;101137.81;;;40.69;12.97
22830;BME280;11581;51.250;6.778;2023-06-14T09:29:20;101175.59;;;40.75;12.95
22830;BME280;11581;51.250;6.778;2023-06-14T09:31:47;101149.00;;;40.60;12.97
22830;BME280;11581;51.250;6.778;2023-06-14T09:34:15;101160.53;;;40.30;12.70
22830;BME280;11581;51.250;6.778;2023-06-14T09:36:43;101171.16;;;39.90;13.06
22830;BME280;11581;51.250;6.778;2023-06-14T09:39:10;101153.31;;;39.57;13.10
22830;BME280;11581;51.250;6.778;2023-06-14T09:41:39;101164.97;;;39.42;13.42
22830;BME280;11581;51.250;6.778;2023-06-14T09:44:09;101172.31;;;39.38;13.32
22830;BME280;11581;51.250;6.778;2023-06-14T09:46:37;101179.41;;;39.35;13.40
22830;BME280;11581;51.250;6.778;2023-06-14T09:49:05;101171.03;;;39.27;12.92
22830;BME280;11581;51.250;6.778;2023-06-14T09:51:31;101167.75;;;39.08;12.96
22830;BME280;11581;51.250;6.778;2023-06-14T09:53:59;101181.78;;;38.86;12.74
22830;BME280;11581;51.250;6.778;2023-06-14T09:56:28;101179.44;;;38.62;13.48
22830;BME280;11581;51.250;6.778;2023-06-14T09:58:57;101173.56;;;38.33;13.35
22830;BME280;11581;51.250;6.778;2023-06-14T10:01:25;101169.09;;;37.93;13.98
22830;BME280;11581;51.250;6.778;2023-06-14T10:03:55;101177.97;;;37.51;13.70
22830;BME280;11581;51.250;6.778;2023-06-14T10:06:23;101168.78;;;37.15;14.08
22830;BME280;11581;51.250;6.778;2023-06-14T10:08:52;101171.13;;;36.86;14.86
22830;BME280;11581;51.250;6.778;2023-06-14T10:11:23;101167.75;;;36.62;14.54
22830;BME280;11581;51.250;6.778;2023-06-14T10:13:51;101175.69;;;36.41;15.06
22830;BME280;11581;51.250;6.778;2023-06-14T10:16:23;101142.63;;;36.13;15.38
22830;BME280;11581;51.250;6.778;2023-06-14T10:18:56;101170.69;;;36.25;15.44
22830;BME280;11581;51.250;6.778;2023-06-14T10:21:32;101155.63;;;36.31;15.19
22830;BME280;11581;51.250;6.778;2023-06-14T10:24:05;101175.91;;;36.45;15.20
22830;BME280;11581;51.250;6.778;2023-06-14T10:26:33;101161.25;;;36.66;15.30
22830;BME280;11581;51.250;6.778;2023-06-14T10:29:01;101170.72;;;36.92;14.85
22830;BME280;11581;51.250;6.778;2023-06-14T10:31:41;101147.81;;;37.09;14.90
22830;BME280;11581;51.250;6.778;2023-06-14T10:34:08;101159.75;;;37.23;14.44
22830;BME280;11581;51.250;6.778;2023-06-14T10:36:35;101151.56;;;37.26;14.63
22830;BME280;11581;51.250;6.778;2023-06-14T10:39:05;101159.50;;;37.33;14.49
22830;BME280;11581;51.250;6.778;2023-06-14T10:41:35;101151.66;;;37.35;14.60
22830;BME280;11581;51.250;6.778;2023-06-14T10:44:31;101165.16;;;37.28;14.69
22830;BME280;11581;51.250;6.778;2023-06-14T10:47:00;101160.56;;;37.23;14.68
22830;BME280;11581;51.250;6.778;2023-06-14T10:49:38;101155.66;;;37.07;14.68
22830;BME280;11581;51.250;6.778;2023-06-14T10:52:09;101148.88;;;36.86;15.17
22830;BME280;11581;51.250;6.778;2023-06-14T10:54:56;101154.06;;;36.65;14.79
22830;BME280;11581;51.250;6.778;2023-06-14T10:57:22;101046.69;;;35.93;14.64
22830;BME280;11581;51.250;6.778;2023-06-14T10:59:50;101142.97;;;36.52;15.09
22830;BME280;11581;51.250;6.778;2023-06-14T11:02:34;101152.84;;;36.58;15.35
22830;BME280;11581;51.250;6.778;2023-06-14T11:05:14;101150.34;;;36.70;15.05
22830;BME280;11581;51.250;6.778;2023-06-14T11:07:48;101146.88;;;36.78;15.28
22830;BME280;11581;51.250;6.778;2023-06-14T11:10:26;101146.63;;;36.88;15.52
22830;BME280;11581;51.250;6.778;2023-06-14T11:12:59;101145.25;;;36.99;14.86
22830;BME280;11581;51.250;6.778;2023-06-14T11:15:28;101141.22;;;37.05;14.95
22830;BME280;11581;51.250;6.778;2023-06-14T11:17:57;101146.28;;;37.03;15.29
22830;BME280;11581;51.250;6.778;2023-06-14T11:20:25;101148.66;;;36.96;14.93
22830;BME280;11581;51.250;6.778;2023-06-14T11:22:53;101146.13;;;36.86;14.85
22830;BME280;11581;51.250;6.778;2023-06-14T11:25:19;101140.34;;;36.69;15.21
22830;BME280;11581;51.250;6.778;2023-06-14T11:27:48;101135.78;;;36.51;15.36
22830;BME280;11581;51.250;6.778;2023-06-14T11:30:16;101139.03;;;36.39;15.41
22830;BME280;11581;51.250;6.778;2023-06-14T11:32:46;101138.03;;;36.22;15.50
22830;BME280;11581;51.250;6.778;2023-06-14T11:35:15;101126.25;;;35.97;16.13
22830;BME280;11581;51.250;6.778;2023-06-14T11:37:42;101102.16;;;35.66;16.36
22830;BME280;11581;51.250;6.778;2023-06-14T11:40:10;101112.47;;;35.47;16.44
22830;BME280;11581;51.250;6.778;2023-06-14T11:42:39;101123.13;;;35.40;16.35
22830;BME280;11581;51.250;6.778;2023-06-14T11:45:08;101137.72;;;35.45;16.45
22830;BME280;11581;51.250;6.778;2023-06-14T11:47:36;101133.22;;;35.31;16.63
22830;BME280;11581;51.250;6.778;2023-06-14T11:50:04;101132.56;;;35.20;16.98
22830;BME280;11581;51.250;6.778;2023-06-14T11:52:33;101119.91;;;35.14;17.07
22830;BME280;11581;51.250;6.778;2023-06-14T11:55:01;101130.91;;;35.19;17.44
22830;BME280;11581;51.250;6.778;2023-06-14T11:57:30;101121.91;;;35.27;17.25
22830;BME280;11581;51.250;6.778;2023-06-14T11:59:56;101135.94;;;35.36;16.76
22830;BME280;11581;51.250;6.778;2023-06-14T12:02:23;101127.59;;;35.36;16.98
22830;BME280;11581;51.250;6.778;2023-06-14T12:04:50;101116.16;;;35.24;17.00
22830;BME280;11581;51.250;6.778;2023-06-14T12:07:18;101119.00;;;35.19;17.03
22830;BME280;11581;51.250;6.778;2023-06-14T12:10:05;101136.31;;;35.11;17.01
22830;BME280;11581;51.250;6.778;2023-06-14T12:12:35;101095.38;;;34.89;17.13
22830;BME280;11581;51.250;6.778;2023-06-14T12:15:02;101113.53;;;34.95;17.24
22830;BME280;11581;51.250;6.778;2023-06-14T12:17:32;101115.66;;;35.03;17.48
22830;BME280;11581;51.250;6.778;2023-06-14T12:19:58;101106.63;;;35.11;17.43
22830;BME280;11581;51.250;6.778;2023-06-14T12:22:28;101102.19;;;35.29;17.20
22830;BME280;11581;51.250;6.778;2023-06-14T12:24:55;101125.19;;;35.48;17.05
22830;BME280;11581;51.250;6.778;2023-06-14T12:27:24;101136.41;;;35.56;16.89
22830;BME280;11581;51.250;6.778;2023-06-14T12:30:01;101118.75;;;35.52;16.90
22830;BME280;11581;51.250;6.778;2023-06-14T12:32:28;101113.38;;;35.42;16.99
22830;BME280;11581;51.250;6.778;2023-06-14T12:34:55;101109.41;;;35.30;17.02
22830;BME280;11581;51.250;6.778;2023-06-14T12:37:22;101128.03;;;35.24;17.46
22830;BME280;11581;51.250;6.778;2023-06-14T12:39:48;101134.81;;;35.18;17.33
22830;BME280;11581;51.250;6.778;2023-06-14T12:42:16;101082.22;;;34.76;17.61
22830;BME280;11581;51.250;6.778;2023-06-14T12:44:45;101120.41;;;34.79;17.97
22830;BME280;11581;51.250;6.778;2023-06-14T12:47:11;101117.63;;;34.61;17.79
22830;BME280;11581;51.250;6.778;2023-06-14T12:49:39;101113.63;;;34.48;18.02
22830;BME280;11581;51.250;6.778;2023-06-14T12:52:07;101121.25;;;34.38;18.20
22830;BME280;11581;51.250;6.778;2023-06-14T12:54:34;101128.00;;;34.27;17.96
22830;BME280;11581;51.250;6.778;2023-06-14T12:57:01;101109.09;;;34.10;18.22